Time;durP1;ratioP1;P1;durP2;ratioP2;P2;SDS_P1;SDS_P2;PMS_P1;PMS_P2;Temp;Humidity;BMP_temperature;BMP_pressure;BME280_temperature;BME280_humidity;BME280_pressure;Samples;Min_cycle;Max_cycle;Signal;HPM_P1;HPM_P2
2023/12/22 00:01:53;;;;;;;5.70;1.00;;;9.90;99.90;;;;;;4954266;28;20031;-77
2023/12/22 00:04:19;;;;;;;5.68;0.88;;;9.90;99.90;;;;;;4953431;28;20117;-78
2023/12/22 00:06:46;;;;;;;6.43;0.80;;;9.90;99.90;;;;;;4955007;28;20027;-77
2023/12/22 00:09:11;;;;;;;4.88;1.13;;;9.90;99.90;;;;;;4954982;28;20366;-77
2023/12/22 00:11:37;;;;;;;5.00;0.90;;;9.90;99.90;;;;;;4953310;29;20055;-77
2023/12/22 00:14:03;;;;;;;5.15;1.25;;;9.80;99.90;;;;;;4955026;28;20027;-77
2023/12/22 00:16:28;;;;;;;2.40;0.73;;;9.70;99.90;;;;;;4953343;28;20090;-77
2023/12/22 00:18:54;;;;;;;5.53;0.75;;;9.70;99.90;;;;;;4953764;28;20118;-77
2023/12/22 00:21:20;;;;;;;4.75;1.17;;;9.70;99.90;;;;;;4953262;29;20035;-77
2023/12/22 00:23:46;;;;;;;2.90;0.98;;;9.70;99.90;;;;;;4954768;28;20078;-76
2023/12/22 00:26:12;;;;;;;4.30;0.80;;;9.60;99.90;;;;;;4952446;28;20041;-78
2023/12/22 00:28:37;;;;;;;4.03;0.95;;;9.60;99.90;;;;;;4953133;28;20027;-76
2023/12/22 00:31:03;;;;;;;2.00;0.80;;;9.60;99.90;;;;;;4953503;28;20032;-77
2023/12/22 00:33:29;;;;;;;3.40;0.70;;;9.60;99.90;;;;;;4953229;29;20038;-76
2023/12/22 00:35:54;;;;;;;3.00;0.70;;;9.60;99.90;;;;;;4955985;28;20055;-77
2023/12/22 00:38:20;;;;;;;2.42;0.93;;;9.60;99.90;;;;;;4956366;28;20018;-77
2023/12/22 00:40:46;;;;;;;2.13;0.60;;;9.60;99.90;;;;;;4956759;28;20030;-77
2023/12/22 00:43:11;;;;;;;3.97;0.80;;;9.70;99.90;;;;;;4956727;28;20035;-77
2023/12/22 00:45:37;;;;;;;3.53;0.73;;;9.60;99.90;;;;;;4973249;28;20110;-78
2023/12/22 00:48:03;;;;;;;4.75;1.00;;;9.70;99.90;;;;;;4956350;28;20478;-77
2023/12/22 00:50:28;;;;;;;2.88;0.65;;;9.70;99.90;;;;;;4956091;28;20035;-78
2023/12/22 00:52:54;;;;;;;4.00;0.73;;;9.70;99.90;;;;;;4956860;28;20471;-77
2023/12/22 00:55:20;;;;;;;3.85;0.60;;;9.70;99.90;;;;;;4973487;28;20436;-77
2023/12/22 00:57:45;;;;;;;3.28;0.70;;;9.70;99.90;;;;;;4973881;28;20097;-77
2023/12/22 01:00:12;;;;;;;2.60;0.95;;;9.60;99.90;;;;;;4956621;28;20038;-77
2023/12/22 01:02:38;;;;;;;4.38;1.08;;;9.70;99.90;;;;;;4955916;28;20455;-77
2023/12/22 01:05:04;;;;;;;4.97;0.80;;;9.70;99.90;;;;;;4956635;28;20031;-77
2023/12/22 01:07:30;;;;;;;3.17;0.63;;;9.70;99.90;;;;;;4956124;28;20114;-77
2023/12/22 01:09:56;;;;;;;6.53;1.13;;;9.60;99.90;;;;;;4973732;28;20080;-77
2023/12/22 01:12:21;;;;;;;2.95;0.80;;;9.60;99.90;;;;;;4956194;28;20495;-77
2023/12/22 01:14:50;;;;;;;6.45;1.40;;;9.60;99.90;;;;;;4956397;28;20027;-77
2023/12/22 01:17:16;;;;;;;5.05;0.73;;;9.60;99.90;;;;;;4956506;28;20035;-78
2023/12/22 01:19:41;;;;;;;3.38;0.77;;;9.70;99.90;;;;;;4955705;28;20035;-77
2023/12/22 01:22:07;;;;;;;4.13;0.45;;;9.70;99.90;;;;;;4973761;28;20023;-77
2023/12/22 01:24:32;;;;;;;3.70;1.67;;;9.60;99.90;;;;;;4955873;28;20066;-77
2023/12/22 01:26:58;;;;;;;3.20;1.00;;;9.60;99.90;;;;;;4973639;28;20034;-77
2023/12/22 01:29:24;;;;;;;1.65;0.73;;;9.60;99.90;;;;;;4955954;28;20030;-78
2023/12/22 01:31:49;;;;;;;1.77;0.55;;;9.60;99.90;;;;;;4973564;28;20478;-77
2023/12/22 01:34:15;;;;;;;1.70;0.40;;;9.60;99.90;;;;;;4956436;28;20027;-77
2023/12/22 01:36:41;;;;;;;3.47;0.90;;;9.60;99.90;;;;;;4973061;28;20082;-77
2023/12/22 01:39:07;;;;;;;1.25;0.60;;;9.50;99.90;;;;;;4976293;28;20027;-76
2023/12/22 01:41:32;;;;;;;3.35;0.50;;;9.60;99.90;;;;;;4959067;28;20034;-78
2023/12/22 01:43:58;;;;;;;4.03;0.70;;;9.50;99.90;;;;;;4976958;28;20446;-78
2023/12/22 01:46:24;;;;;;;2.15;0.40;;;9.60;99.90;;;;;;4976404;28;20034;-78
2023/12/22 01:48:50;;;;;;;2.70;0.93;;;9.50;99.90;;;;;;4977072;28;20031;-78
2023/12/22 01:51:15;;;;;;;4.50;0.60;;;9.50;99.90;;;;;;4976640;28;20038;-78
2023/12/22 01:53:41;;;;;;;2.40;0.55;;;9.50;99.90;;;;;;4959055;28;20034;-78
2023/12/22 01:56:07;;;;;;;2.33;0.50;;;9.50;99.90;;;;;;4976404;28;20027;-78
2023/12/22 01:58:35;;;;;;;1.95;0.40;;;9.60;99.90;;;;;;4976334;28;20034;-77
2023/12/22 02:01:01;;;;;;;3.75;0.77;;;9.60;99.90;;;;;;4959185;28;20034;-78
2023/12/22 02:03:27;;;;;;;2.25;0.60;;;9.50;99.90;;;;;;4976106;28;20038;-78
2023/12/22 02:05:54;;;;;;;3.80;0.52;;;9.50;99.90;;;;;;4959213;28;20038;-78
2023/12/22 02:08:22;;;;;;;3.05;0.50;;;9.50;99.90;;;;;;4959337;28;20030;-78
2023/12/22 02:10:48;;;;;;;0.93;0.40;;;9.50;99.90;;;;;;4976575;28;20436;-78
2023/12/22 02:13:14;;;;;;;2.20;0.68;;;9.50;99.90;;;;;;4959211;28;20516;-75
2023/12/22 02:15:40;;;;;;;3.85;0.80;;;9.50;99.90;;;;;;4975873;28;20053;-76
2023/12/22 02:18:08;;;;;;;3.63;0.75;;;9.50;99.90;;;;;;4958927;28;20070;-75
2023/12/22 02:20:34;;;;;;;3.15;0.60;;;9.50;99.90;;;;;;4958553;28;20046;-76
2023/12/22 02:23:00;;;;;;;2.40;0.60;;;9.50;99.90;;;;;;4976192;28;20102;-76
2023/12/22 02:25:25;;;;;;;3.40;0.88;;;9.50;99.90;;;;;;4958372;28;20130;-76
2023/12/22 02:27:57;;;;;;;7.53;0.50;;;9.40;99.90;;;;;;4958924;28;20454;-75
2023/12/22 02:30:52;;;;;;;2.38;0.60;;;9.40;99.90;;;;;;4957985;28;20125;-84
2023/12/22 02:33:20;;;;;;;3.17;0.63;;;9.40;99.90;;;;;;4976112;28;20066;-76
2023/12/22 02:35:49;;;;;;;1.77;0.60;;;9.40;99.90;;;;;;4958058;28;20098;-76
2023/12/22 02:38:15;;;;;;;2.00;0.50;;;9.40;99.90;;;;;;4976029;28;20042;-75
2023/12/22 02:40:42;;;;;;;3.00;1.10;;;9.40;99.90;;;;;;4975617;28;20065;-75
2023/12/22 02:43:09;;;;;;;1.92;0.57;;;9.40;99.90;;;;;;4975785;28;20459;-76
2023/12/22 02:45:34;;;;;;;3.90;0.65;;;9.40;99.90;;;;;;4958045;28;20027;-76
2023/12/22 02:48:00;;;;;;;4.45;0.80;;;9.40;99.90;;;;;;4975419;28;20030;-76
2023/12/22 02:50:26;;;;;;;4.75;0.70;;;9.30;99.90;;;;;;4974391;28;20070;-76
2023/12/22 02:52:51;;;;;;;2.85;0.80;;;9.40;99.90;;;;;;4958349;28;20031;-76
2023/12/22 02:55:17;;;;;;;7.22;1.00;;;9.40;99.90;;;;;;4958062;28;20150;-76
2023/12/22 02:57:43;;;;;;;6.30;0.80;;;9.30;99.90;;;;;;4957891;28;20034;-76
2023/12/22 03:00:09;;;;;;;3.08;0.75;;;9.30;99.90;;;;;;4975524;28;20468;-75
2023/12/22 03:02:34;;;;;;;5.68;0.80;;;9.30;99.90;;;;;;4957745;28;20058;-75
2023/12/22 03:05:00;;;;;;;4.00;0.70;;;9.30;99.90;;;;;;4975463;28;20475;-76
2023/12/22 03:07:25;;;;;;;2.10;0.70;;;9.30;99.90;;;;;;4957552;28;20027;-76
2023/12/22 03:09:51;;;;;;;5.20;0.85;;;9.30;99.90;;;;;;4958041;28;20395;-75
2023/12/22 03:12:17;;;;;;;2.83;0.70;;;9.30;99.90;;;;;;4975438;28;20026;-78
2023/12/22 03:14:43;;;;;;;4.70;0.88;;;9.40;99.90;;;;;;4957572;28;20026;-77
2023/12/22 03:17:10;;;;;;;2.47;0.50;;;9.40;99.90;;;;;;4975420;28;20106;-77
2023/12/22 03:19:36;;;;;;;2.75;0.70;;;9.50;99.90;;;;;;4974739;28;20035;-77
2023/12/22 03:22:02;;;;;;;2.65;0.55;;;9.40;99.90;;;;;;4957908;28;20033;-77
2023/12/22 03:24:28;;;;;;;1.73;0.70;;;9.50;99.90;;;;;;4974691;28;20452;-78
2023/12/22 03:26:54;;;;;;;1.42;0.40;;;9.50;99.90;;;;;;4975071;28;20526;-77
2023/12/22 03:29:20;;;;;;;4.55;0.80;;;9.50;99.90;;;;;;4974970;28;20035;-77
2023/12/22 03:31:46;;;;;;;3.35;0.60;;;9.50;99.90;;;;;;4957266;28;20066;-76
2023/12/22 03:34:12;;;;;;;4.85;0.77;;;9.50;99.90;;;;;;4975027;28;20065;-77
2023/12/22 03:36:41;;;;;;;4.15;0.77;;;9.50;99.90;;;;;;4974372;28;20142;-78
2023/12/22 03:39:07;;;;;;;4.22;0.50;;;9.50;99.90;;;;;;4957475;28;20031;-75
2023/12/22 03:41:32;;;;;;;3.15;0.60;;;9.50;99.90;;;;;;4974437;28;20027;-76
2023/12/22 03:43:58;;;;;;;2.63;0.68;;;9.50;99.90;;;;;;4957855;28;20075;-75
2023/12/22 03:46:24;;;;;;;4.03;0.65;;;9.50;99.90;;;;;;4974703;28;20026;-76
2023/12/22 03:48:53;;;;;;;5.10;1.08;;;9.40;99.90;;;;;;4956874;28;20400;-76
2023/12/22 03:51:19;;;;;;;4.05;0.70;;;9.40;99.90;;;;;;4957320;28;20391;-75
2023/12/22 03:53:44;;;;;;;2.35;0.90;;;9.40;99.90;;;;;;4974180;28;20487;-76
2023/12/22 03:56:10;;;;;;;6.90;0.80;;;9.40;99.90;;;;;;4957297;28;20033;-75
2023/12/22 03:58:36;;;;;;;3.97;0.80;;;9.40;99.90;;;;;;4956871;28;20516;-76
2023/12/22 04:01:02;;;;;;;5.72;0.70;;;9.30;99.90;;;;;;4957168;28;20041;-76
2023/12/22 04:03:28;;;;;;;5.30;0.70;;;9.30;99.90;;;;;;4973985;28;20035;-86
2023/12/22 04:05:54;;;;;;;4.13;0.75;;;9.30;99.90;;;;;;4974173;28;20033;-77
2023/12/22 04:08:22;;;;;;;4.55;0.70;;;9.30;99.90;;;;;;4974576;28;20034;-77
2023/12/22 04:10:48;;;;;;;4.95;0.90;;;9.30;99.90;;;;;;4956729;28;20074;-77
2023/12/22 04:13:14;;;;;;;4.13;0.80;;;9.20;99.90;;;;;;4956954;28;20031;-77
2023/12/22 04:15:40;;;;;;;3.00;0.88;;;9.20;99.90;;;;;;4956655;28;20026;-77
2023/12/22 04:18:06;;;;;;;5.95;1.35;;;9.20;99.90;;;;;;4957175;28;20057;-77
2023/12/22 04:20:40;;;;;;;3.95;0.70;;;9.20;99.90;;;;;;4973823;28;20043;-79
2023/12/22 04:23:05;;;;;;;5.22;0.60;;;9.20;99.90;;;;;;4973935;28;20078;-77
2023/12/22 04:25:31;;;;;;;3.75;0.70;;;9.10;99.90;;;;;;4974077;28;20035;-78
2023/12/22 04:27:57;;;;;;;1.13;0.45;;;9.10;99.90;;;;;;4974181;28;20460;-77
2023/12/22 04:30:22;;;;;;;2.38;0.50;;;9.10;99.90;;;;;;4974211;28;20061;-77
2023/12/22 04:32:50;;;;;;;2.72;0.70;;;9.00;99.90;;;;;;4973701;28;20038;-77
2023/12/22 04:35:16;;;;;;;6.32;0.75;;;9.00;99.90;;;;;;4957090;28;20019;-77
2023/12/22 04:37:41;;;;;;;8.32;1.15;;;9.00;99.90;;;;;;4973763;28;20388;-77
2023/12/22 04:40:07;;;;;;;2.50;0.63;;;9.00;99.90;;;;;;4956561;28;20062;-77
2023/12/22 04:42:33;;;;;;;3.30;0.68;;;9.00;99.90;;;;;;4973682;28;20038;-77
2023/12/22 04:44:58;;;;;;;4.13;0.80;;;9.00;99.90;;;;;;4974315;28;20031;-77
2023/12/22 04:47:24;;;;;;;4.15;0.90;;;9.00;99.90;;;;;;4956623;28;20118;-77
2023/12/22 04:49:49;;;;;;;2.90;0.63;;;9.00;99.90;;;;;;4956307;28;20395;-77
2023/12/22 04:52:15;;;;;;;1.50;0.52;;;9.00;99.90;;;;;;4956854;28;20114;-77
2023/12/22 04:54:41;;;;;;;4.20;0.82;;;9.10;99.90;;;;;;4973704;28;20027;-78
2023/12/22 04:57:06;;;;;;;4.05;0.77;;;9.10;99.90;;;;;;4957051;28;20019;-76
2023/12/22 04:59:32;;;;;;;2.90;0.55;;;9.00;99.90;;;;;;4956116;28;20035;-81
2023/12/22 05:01:57;;;;;;;2.50;0.77;;;9.00;99.90;;;;;;4956658;28;20464;-77
2023/12/22 05:04:23;;;;;;;7.68;1.08;;;9.00;99.90;;;;;;4956411;28;20034;-77
2023/12/22 05:06:49;;;;;;;4.47;1.13;;;9.00;99.90;;;;;;4956120;28;20038;-77
2023/12/22 05:09:15;;;;;;;2.55;0.82;;;9.10;99.90;;;;;;4956482;28;20030;-77
2023/12/22 05:11:41;;;;;;;4.35;1.25;;;9.10;99.90;;;;;;4955812;28;20054;-77
2023/12/22 05:14:06;;;;;;;3.20;0.93;;;9.10;99.90;;;;;;4959784;28;20112;-77
2023/12/22 05:16:32;;;;;;;9.13;1.10;;;9.10;99.90;;;;;;4960089;28;20062;-87
2023/12/22 05:18:58;;;;;;;6.00;1.20;;;9.10;99.90;;;;;;4977857;28;20070;-77
2023/12/22 05:21:24;;;;;;;6.63;0.90;;;9.10;99.90;;;;;;4960025;28;20023;-77
2023/12/22 05:23:50;;;;;;;4.07;0.98;;;9.10;99.90;;;;;;4976526;28;20098;-77
2023/12/22 05:26:20;;;;;;;6.80;0.95;;;9.20;99.90;;;;;;4977148;28;20062;-77
2023/12/22 05:28:46;;;;;;;6.88;1.80;;;9.20;99.90;;;;;;4959591;28;20027;-77
2023/12/22 05:31:12;;;;;;;6.53;1.58;;;9.20;99.90;;;;;;4959929;28;20026;-77
2023/12/22 05:33:37;;;;;;;6.55;1.35;;;9.20;99.90;;;;;;4977008;28;20042;-77
2023/12/22 05:36:04;;;;;;;5.07;0.95;;;9.20;99.90;;;;;;4959514;28;20054;-77
2023/12/22 05:38:29;;;;;;;12.43;1.20;;;9.30;99.90;;;;;;4959905;28;20034;-77
2023/12/22 05:40:55;;;;;;;7.18;1.08;;;9.30;99.90;;;;;;4959311;28;20031;-77
2023/12/22 05:43:21;;;;;;;6.70;1.45;;;9.40;99.90;;;;;;4959756;28;20030;-77
2023/12/22 05:45:46;;;;;;;3.20;0.88;;;9.40;99.90;;;;;;4976777;28;20023;-77
2023/12/22 05:48:12;;;;;;;7.35;1.00;;;9.40;99.90;;;;;;4959536;28;20471;-77
2023/12/22 05:50:37;;;;;;;5.90;1.15;;;9.40;99.90;;;;;;4959163;28;20043;-78
2023/12/22 05:53:03;;;;;;;10.80;1.17;;;9.40;99.90;;;;;;4959545;28;20030;-77
2023/12/22 05:55:29;;;;;;;3.22;1.33;;;9.40;99.90;;;;;;4959482;28;20030;-77
2023/12/22 05:57:55;;;;;;;8.25;1.15;;;9.50;99.90;;;;;;4976386;28;20228;-78
2023/12/22 06:00:21;;;;;;;4.28;1.00;;;9.50;99.90;;;;;;4976829;28;20085;-77
2023/12/22 06:02:47;;;;;;;7.75;1.10;;;9.50;99.90;;;;;;4976316;28;20454;-77
2023/12/22 06:05:13;;;;;;;5.10;1.23;;;9.50;99.90;;;;;;4959370;28;20041;-78
2023/12/22 06:07:39;;;;;;;7.32;0.82;;;9.50;99.90;;;;;;4958890;28;20035;-78
2023/12/22 06:10:05;;;;;;;3.92;0.98;;;9.50;99.90;;;;;;4959173;28;20487;-77
2023/12/22 06:12:31;;;;;;;6.80;0.90;;;9.50;99.90;;;;;;4959317;28;20081;-77
2023/12/22 06:14:56;;;;;;;6.68;1.15;;;9.50;99.90;;;;;;4958871;28;20031;-77
2023/12/22 06:17:25;;;;;;;5.05;1.20;;;9.50;99.90;;;;;;4976144;28;20529;-79
2023/12/22 06:19:51;;;;;;;5.43;0.95;;;9.50;99.90;;;;;;4958155;28;20093;-78
2023/12/22 06:22:16;;;;;;;4.05;1.10;;;9.50;99.90;;;;;;4976355;28;20027;-77
2023/12/22 06:24:42;;;;;;;4.15;1.15;;;9.50;99.90;;;;;;4958618;28;20030;-77
2023/12/22 06:27:07;;;;;;;10.13;1.30;;;9.50;99.90;;;;;;4976055;28;20438;-77
2023/12/22 06:29:33;;;;;;;5.47;1.00;;;9.50;99.90;;;;;;4958964;28;20033;-77
2023/12/22 06:31:59;;;;;;;5.05;1.00;;;9.50;99.90;;;;;;4958508;28;20031;-77
2023/12/22 06:34:25;;;;;;;8.85;1.20;;;9.50;99.90;;;;;;4959032;28;20173;-77
2023/12/22 06:36:51;;;;;;;9.75;0.98;;;9.50;99.90;;;;;;4958195;28;20086;-78
2023/12/22 06:39:17;;;;;;;5.15;1.10;;;9.40;99.90;;;;;;4958669;28;20027;-77
2023/12/22 06:41:42;;;;;;;6.68;1.00;;;9.40;99.90;;;;;;4975549;28;20037;-77
2023/12/22 06:44:10;;;;;;;6.32;1.00;;;9.40;99.90;;;;;;4975966;28;20031;-77
2023/12/22 06:46:39;;;;;;;3.80;0.95;;;9.40;99.90;;;;;;4958437;28;20476;-77
2023/12/22 06:49:05;;;;;;;3.15;1.10;;;9.40;99.90;;;;;;4958360;28;20066;-78
2023/12/22 06:51:31;;;;;;;4.00;1.10;;;9.30;99.90;;;;;;4958536;28;20479;-78
2023/12/22 06:53:59;;;;;;;8.00;1.17;;;9.30;99.90;;;;;;4957938;28;20037;-78
2023/12/22 06:56:27;;;;;;;5.25;1.00;;;9.30;99.90;;;;;;4975993;28;20083;-78
2023/12/22 06:58:57;;;;;;;6.35;1.20;;;9.30;99.90;;;;;;4957854;28;20037;-77
2023/12/22 07:01:25;;;;;;;9.30;1.33;;;9.30;99.90;;;;;;4957703;28;20460;-77
2023/12/22 07:03:51;;;;;;;7.65;1.20;;;9.20;99.90;;;;;;4957820;28;20022;-77
2023/12/22 07:06:21;;;;;;;3.35;1.00;;;9.20;99.90;;;;;;4975429;28;20026;-77
2023/12/22 07:09:12;;;;;;;10.02;1.27;;;9.20;99.90;;;;;;4957612;28;20023;-78
2023/12/22 07:11:42;;;;;;;9.18;1.20;;;9.20;99.90;;;;;;4953127;28;20134;-78
2023/12/22 07:14:08;;;;;;;10.55;1.23;;;9.20;99.90;;;;;;4953569;29;20027;-77
2023/12/22 07:16:37;;;;;;;7.25;1.30;;;9.20;99.90;;;;;;4953996;28;20018;-77
2023/12/22 07:19:04;;;;;;;13.50;2.05;;;9.20;99.90;;;;;;4950561;28;20042;-78
2023/12/22 07:21:29;;;;;;;11.13;1.60;;;9.10;99.90;;;;;;4951718;28;20027;-77
2023/12/22 07:23:55;;;;;;;6.03;1.02;;;9.10;99.90;;;;;;4957200;28;20089;-77
2023/12/22 07:26:21;;;;;;;14.07;1.77;;;9.10;99.90;;;;;;4957693;28;20495;-77
2023/12/22 07:28:48;;;;;;;12.65;1.83;;;9.10;99.90;;;;;;4963264;28;20105;-77
2023/12/22 07:31:14;;;;;;;8.75;1.55;;;9.00;99.90;;;;;;4953985;28;20058;-76
2023/12/22 07:33:43;;;;;;;8.93;1.50;;;9.00;99.90;;;;;;4955585;28;20031;-75
2023/12/22 07:36:09;;;;;;;10.60;1.50;;;9.00;99.90;;;;;;4943782;28;20047;-78
2023/12/22 07:38:34;;;;;;;6.28;1.60;;;9.00;99.90;;;;;;4946934;28;20404;-77
2023/12/22 07:41:00;;;;;;;8.02;1.45;;;8.90;99.90;;;;;;4947493;28;20027;-76
2023/12/22 07:43:26;;;;;;;9.63;1.52;;;8.90;99.90;;;;;;4933920;29;20024;-76
2023/12/22 07:45:51;;;;;;;11.20;1.23;;;8.80;99.90;;;;;;4950032;28;20035;-77
2023/12/22 07:48:17;;;;;;;9.35;1.77;;;8.80;99.90;;;;;;4950149;28;20593;-76
2023/12/22 07:50:44;;;;;;;11.13;1.65;;;8.80;99.90;;;;;;4949509;28;20031;-77
2023/12/22 07:53:10;;;;;;;10.93;1.80;;;8.80;99.90;;;;;;4949777;28;20036;-76
2023/12/22 07:55:38;;;;;;;12.45;2.17;;;8.70;99.90;;;;;;4949972;28;20525;-76
2023/12/22 07:58:07;;;;;;;10.23;1.90;;;8.60;99.90;;;;;;4934847;29;20087;-76
2023/12/22 08:00:33;;;;;;;11.55;2.80;;;8.60;99.90;;;;;;4950284;28;20116;-76
2023/12/22 08:03:00;;;;;;;10.45;1.77;;;8.60;99.90;;;;;;4949588;28;20067;-76
2023/12/22 08:05:25;;;;;;;9.93;2.53;;;8.60;99.90;;;;;;4935310;29;20110;-76
2023/12/22 08:07:51;;;;;;;11.50;1.90;;;8.60;99.90;;;;;;4949670;28;20059;-77
2023/12/22 08:10:17;;;;;;;14.23;2.10;;;8.60;99.90;;;;;;4935247;29;20036;-76
2023/12/22 08:12:43;;;;;;;8.02;1.77;;;8.60;99.90;;;;;;4935065;29;20050;-88
2023/12/22 08:15:10;;;;;;;13.05;2.13;;;8.60;99.90;;;;;;4949856;28;20067;-76
2023/12/22 08:17:37;;;;;;;9.68;2.17;;;8.60;99.90;;;;;;4949825;28;20032;-76
2023/12/22 08:20:03;;;;;;;15.18;2.05;;;8.60;99.90;;;;;;4949455;28;20046;-76
2023/12/22 08:22:29;;;;;;;10.65;1.60;;;8.60;99.90;;;;;;4949891;28;20031;-76
2023/12/22 08:24:55;;;;;;;7.03;1.60;;;8.70;99.90;;;;;;4934664;29;20023;-77
2023/12/22 08:27:20;;;;;;;10.40;2.58;;;8.70;99.90;;;;;;4949696;28;20031;-77
2023/12/22 08:29:46;;;;;;;8.15;1.77;;;8.80;99.90;;;;;;4934668;29;20032;-77
2023/12/22 08:32:11;;;;;;;9.18;1.98;;;8.80;99.90;;;;;;4949989;28;20143;-76
2023/12/22 08:34:37;;;;;;;14.02;2.03;;;8.80;99.90;;;;;;4949609;28;20457;-77
2023/12/22 08:37:03;;;;;;;10.60;1.50;;;8.80;99.90;;;;;;4909373;28;1077232;-75
2023/12/22 08:39:29;;;;;;;8.73;1.85;;;8.90;99.90;;;;;;4937518;29;20050;-75
2023/12/22 08:41:54;;;;;;;5.75;1.52;;;8.90;99.90;;;;;;4954331;29;20126;-75
2023/12/22 08:44:20;;;;;;;8.10;1.75;;;9.00;99.90;;;;;;4937820;29;20382;-78
2023/12/22 08:46:46;;;;;;;10.20;2.08;;;9.00;99.90;;;;;;4936566;28;20476;-78
2023/12/22 08:49:11;;;;;;;13.45;2.63;;;9.00;99.90;;;;;;4957583;29;20114;-75
2023/12/22 08:51:37;;;;;;;9.32;1.55;;;9.00;99.90;;;;;;4941601;29;20464;-75
2023/12/22 08:54:05;;;;;;;11.23;1.80;;;9.00;99.90;;;;;;4940920;29;20034;-75
2023/12/22 08:56:31;;;;;;;8.95;1.73;;;9.00;99.90;;;;;;4941202;29;20042;-77
2023/12/22 08:58:59;;;;;;;10.43;2.53;;;9.00;99.90;;;;;;4940726;29;20113;-77
2023/12/22 09:01:25;;;;;;;12.00;2.13;;;9.00;99.90;;;;;;4941463;29;20035;-77
2023/12/22 09:03:50;;;;;;;16.70;2.05;;;9.00;99.90;;;;;;4957475;29;20023;-77
2023/12/22 09:06:17;;;;;;;8.85;1.85;;;9.10;99.90;;;;;;4958248;29;20480;-77
2023/12/22 09:08:43;;;;;;;14.38;2.47;;;9.10;99.90;;;;;;4941167;29;20027;-77
2023/12/22 09:11:11;;;;;;;13.32;2.50;;;9.10;99.90;;;;;;4940756;29;20028;-77
2023/12/22 09:13:37;;;;;;;13.82;2.25;;;9.20;99.90;;;;;;4941257;29;20036;-77
2023/12/22 09:16:03;;;;;;;15.73;2.92;;;9.20;99.90;;;;;;4956759;29;20074;-77
2023/12/22 09:18:29;;;;;;;12.90;2.05;;;9.20;99.90;;;;;;4957861;29;20058;-77
2023/12/22 09:20:54;;;;;;;11.65;2.00;;;9.20;99.90;;;;;;4940526;29;20066;-77
2023/12/22 09:23:21;;;;;;;14.68;1.75;;;9.20;99.90;;;;;;4956754;29;20027;-77
2023/12/22 09:25:48;;;;;;;11.20;2.10;;;9.30;99.90;;;;;;4958450;29;20029;-77
2023/12/22 09:28:13;;;;;;;8.57;1.60;;;9.30;99.90;;;;;;4958144;29;20375;-76
2023/12/22 09:30:39;;;;;;;12.32;2.05;;;9.30;99.90;;;;;;4940579;29;20032;-77
2023/12/22 09:33:04;;;;;;;11.60;1.95;;;9.30;99.90;;;;;;4940119;29;20032;-76
2023/12/22 09:35:30;;;;;;;16.40;1.80;;;9.30;99.90;;;;;;4957816;29;20027;-77
2023/12/22 09:37:56;;;;;;;13.55;1.90;;;9.30;99.90;;;;;;4957057;29;20047;-77
2023/12/22 09:40:24;;;;;;;14.95;2.00;;;9.40;99.90;;;;;;4940779;29;20501;-77
2023/12/22 09:42:54;;;;;;;11.93;1.98;;;9.40;99.90;;;;;;4957502;29;20106;-78
2023/12/22 09:45:21;;;;;;;13.88;1.73;;;9.40;99.90;;;;;;4957468;29;20027;-77
2023/12/22 09:47:48;;;;;;;16.38;2.00;;;9.40;99.90;;;;;;4940460;29;20042;-76
2023/12/22 09:50:15;;;;;;;11.63;2.17;;;9.40;99.90;;;;;;4940443;29;20416;-78
2023/12/22 09:52:45;;;;;;;12.73;2.03;;;9.40;99.90;;;;;;4940466;29;20114;-77
2023/12/22 09:55:12;;;;;;;19.98;2.45;;;9.40;99.90;;;;;;4957167;29;20027;-77
2023/12/22 09:57:41;;;;;;;10.40;2.28;;;9.50;99.90;;;;;;4940320;29;20055;-78
2023/12/22 10:00:09;;;;;;;14.23;2.15;;;9.50;99.90;;;;;;4939224;29;20028;-77
2023/12/22 10:02:37;;;;;;;12.52;1.95;;;9.50;99.90;;;;;;4940282;29;20031;-77
2023/12/22 10:05:03;;;;;;;15.35;1.80;;;9.50;99.90;;;;;;4955841;29;20039;-78
2023/12/22 10:07:38;;;;;;;12.98;2.15;;;9.50;99.90;;;;;;4957187;29;20460;-77
2023/12/22 10:10:05;;;;;;;8.48;1.95;;;9.50;99.90;;;;;;4939143;29;20050;-76
2023/12/22 10:12:33;;;;;;;8.35;1.67;;;9.50;99.90;;;;;;4957028;29;20464;-77
2023/12/22 10:15:00;;;;;;;17.73;2.08;;;9.50;99.90;;;;;;4939545;29;20051;-76
2023/12/22 10:17:26;;;;;;;16.17;1.80;;;9.50;99.90;;;;;;4939798;29;20110;-76
2023/12/22 10:19:52;;;;;;;9.85;2.20;;;9.50;99.90;;;;;;4956378;29;20118;-77
2023/12/22 10:22:18;;;;;;;10.27;1.80;;;9.50;99.90;;;;;;4939866;29;20031;-77
2023/12/22 10:24:50;;;;;;;15.35;2.97;;;9.50;99.90;;;;;;4956947;29;20448;-76
2023/12/22 10:27:21;;;;;;;;;;;9.50;99.90;;;;;;4939814;29;20055;-77
2023/12/22 10:29:48;;;;;;;9.55;1.65;;;9.40;99.90;;;;;;4956777;29;19914;-77
2023/12/22 10:32:14;;;;;;;15.13;2.45;;;9.40;99.90;;;;;;4956229;29;20063;-77
2023/12/22 10:34:39;;;;;;;13.60;2.22;;;9.40;99.90;;;;;;4956522;29;20055;-77
2023/12/22 10:37:05;;;;;;;17.27;1.83;;;9.30;99.90;;;;;;4938460;29;20043;-76
2023/12/22 10:39:31;;;;;;;16.63;2.55;;;9.30;99.90;;;;;;4956630;29;20027;-76
2023/12/22 10:42:00;;;;;;;11.18;1.77;;;9.30;99.90;;;;;;4938907;29;20079;-76
2023/12/22 10:44:27;;;;;;;12.55;2.17;;;9.20;99.90;;;;;;4939342;29;20487;-76
2023/12/22 10:46:54;;;;;;;11.57;1.92;;;9.20;99.90;;;;;;4956164;29;20384;-79
2023/12/22 10:49:20;;;;;;;10.05;1.83;;;9.20;99.90;;;;;;4955168;29;20032;-77
2023/12/22 10:51:46;;;;;;;9.93;2.50;;;9.10;99.90;;;;;;4956441;29;20085;-76
2023/12/22 10:54:11;;;;;;;14.07;2.22;;;9.10;99.90;;;;;;4938809;29;20411;-76
2023/12/22 10:56:38;;;;;;;15.50;2.40;;;9.00;99.90;;;;;;4956527;29;20428;-76
2023/12/22 10:59:04;;;;;;;12.10;2.50;;;9.00;99.90;;;;;;4955946;29;20024;-76
2023/12/22 11:01:33;;;;;;;13.95;2.33;;;9.00;99.90;;;;;;4939311;29;20090;-76
2023/12/22 11:04:02;;;;;;;11.23;1.75;;;9.00;99.90;;;;;;4955707;29;20481;-75
2023/12/22 11:06:33;;;;;;;8.82;2.35;;;9.00;99.90;;;;;;4939095;29;20056;-75
2023/12/22 11:09:03;;;;;;;8.80;1.70;;;9.00;99.90;;;;;;4955735;29;20102;-76
2023/12/22 11:11:34;;;;;;;7.35;1.73;;;8.90;99.90;;;;;;4955282;28;20090;-76
2023/12/22 11:14:01;;;;;;;12.13;3.07;;;9.00;99.90;;;;;;4955516;29;20028;-77
2023/12/22 11:16:29;;;;;;;9.18;1.83;;;8.90;99.90;;;;;;4938724;29;20569;-77
2023/12/22 11:18:56;;;;;;;13.70;2.35;;;8.90;99.90;;;;;;4938208;29;20035;-83
2023/12/22 11:21:22;;;;;;;13.32;2.15;;;8.90;99.90;;;;;;4955906;29;20045;-77
2023/12/22 11:23:50;;;;;;;11.60;1.55;;;8.90;99.90;;;;;;4938371;29;20034;-77
2023/12/22 11:26:20;;;;;;;9.88;1.73;;;8.90;99.90;;;;;;4955015;29;20046;-77
2023/12/22 11:28:47;;;;;;;12.73;1.77;;;8.90;99.90;;;;;;4938798;29;20114;-77
2023/12/22 11:31:13;;;;;;;10.35;1.55;;;8.90;99.90;;;;;;4938127;29;20090;-76
2023/12/22 11:33:47;;;;;;;10.98;1.85;;;8.80;99.90;;;;;;4955649;29;20068;-77
2023/12/22 11:36:13;;;;;;;9.30;1.77;;;8.80;99.90;;;;;;4955297;29;20101;-77
2023/12/22 11:38:40;;;;;;;13.43;1.85;;;8.90;99.90;;;;;;4938368;29;20032;-76
2023/12/22 11:41:10;;;;;;;13.27;1.42;;;8.80;99.90;;;;;;4955082;29;20035;-76
2023/12/22 11:43:38;;;;;;;8.82;1.23;;;8.80;99.90;;;;;;4938220;29;20031;-76
2023/12/22 11:46:04;;;;;;;6.88;1.40;;;8.90;99.90;;;;;;4937693;29;20042;-76
2023/12/22 11:48:30;;;;;;;4.93;1.10;;;8.90;99.90;;;;;;4955597;29;20031;-76
2023/12/22 11:50:57;;;;;;;4.95;1.05;;;8.90;99.90;;;;;;4937981;29;20035;-88
2023/12/22 11:53:23;;;;;;;7.10;1.52;;;8.90;99.90;;;;;;4955178;29;20035;-76
2023/12/22 11:56:00;;;;;;;7.68;1.17;;;8.90;99.90;;;;;;4955313;29;20119;-77
2023/12/22 11:58:39;;;;;;;6.63;1.50;;;8.90;99.90;;;;;;4938384;29;20023;-77
2023/12/22 12:01:07;;;;;;;4.82;1.30;;;8.90;99.90;;;;;;4953662;29;20031;-76
2023/12/22 12:03:38;;;;;;;7.10;1.20;;;8.90;99.90;;;;;;4955084;29;20027;-77
2023/12/22 12:06:30;;;;;;;5.70;1.15;;;8.90;99.90;;;;;;4954666;29;20023;-76
2023/12/22 12:09:01;;;;;;;;;;;8.90;99.90;;;;;;4955756;29;20498;-76
2023/12/22 12:11:54;;;;;;;4.25;0.70;;;8.90;99.90;;;;;;4938065;29;20414;-77
2023/12/22 12:14:25;;;;;;;6.18;0.85;;;8.90;99.90;;;;;;4953386;29;20038;-77
2023/12/22 12:17:05;;;;;;;3.17;0.70;;;8.90;99.90;;;;;;4937741;29;20520;-76
2023/12/22 12:19:33;;;;;;;4.60;0.80;;;8.90;99.90;;;;;;4955192;29;20067;-77
2023/12/22 12:21:58;;;;;;;4.63;1.00;;;9.00;99.90;;;;;;4937211;29;20027;-80
2023/12/22 12:24:25;;;;;;;5.60;0.85;;;9.00;99.90;;;;;;4954781;29;20053;-77
2023/12/22 12:26:51;;;;;;;3.42;0.77;;;9.00;99.90;;;;;;4954927;29;20038;-77
2023/12/22 12:29:17;;;;;;;4.18;0.90;;;9.00;99.90;;;;;;4937241;29;20023;-76
2023/12/22 12:31:43;;;;;;;3.55;0.75;;;9.10;99.90;;;;;;4937739;29;20035;-77
2023/12/22 12:34:10;;;;;;;2.90;0.70;;;9.10;99.90;;;;;;4954456;29;20031;-77
2023/12/22 12:36:37;;;;;;;3.53;0.85;;;9.10;99.90;;;;;;4937430;29;20082;-77
2023/12/22 12:39:15;;;;;;;4.32;1.08;;;9.20;99.90;;;;;;4937017;29;20070;-77
2023/12/22 12:41:43;;;;;;;4.85;1.02;;;9.20;99.90;;;;;;4937835;29;20031;-77
2023/12/22 12:44:10;;;;;;;1.58;0.65;;;9.20;99.90;;;;;;4937221;29;20027;-75
2023/12/22 12:46:42;;;;;;;4.32;1.00;;;9.20;99.90;;;;;;4937476;29;20436;-77
2023/12/22 12:49:11;;;;;;;1.98;0.55;;;9.20;99.90;;;;;;4937280;29;20507;-77
2023/12/22 12:51:38;;;;;;;3.58;0.95;;;9.20;99.90;;;;;;4937400;29;20031;-77
2023/12/22 12:54:08;;;;;;;3.13;0.75;;;9.30;99.90;;;;;;4937069;29;20028;-77